createdAt,value
2022-08-03T00:00:26.691Z,101215.34
2022-08-03T00:02:53.559Z,101213.03
2022-08-03T00:05:20.317Z,101219.63
2022-08-03T00:07:46.912Z,101213.28
2022-08-03T00:10:16.326Z,101211.13
2022-08-03T00:12:43.018Z,101210.13
2022-08-03T00:15:11.370Z,101203.56
2022-08-03T00:17:52.461Z,101205.34
2022-08-03T00:20:23.558Z,101206.84
2022-08-03T00:22:50.500Z,101210.22
2022-08-03T00:25:17.631Z,101206.25
2022-08-03T00:27:44.380Z,101213.56
2022-08-03T00:30:11.810Z,101213.63
2022-08-03T00:32:38.828Z,101216.16
2022-08-03T00:35:27.361Z,101210.75
2022-08-03T00:37:59.322Z,101206.47
2022-08-03T00:40:26.521Z,101216.41
2022-08-03T00:42:59.259Z,101209.03
2022-08-03T00:45:32.905Z,101215.94
2022-08-03T00:48:00.175Z,101215.78
2022-08-03T00:50:30.889Z,101213.75
2022-08-03T00:52:59.869Z,101221.63
2022-08-03T00:55:26.874Z,101211.94
2022-08-03T00:57:54.540Z,101215.13
2022-08-03T01:00:24.114Z,101215.19
2022-08-03T01:02:51.758Z,101214.41
2022-08-03T01:05:19.216Z,101206.47
2022-08-03T01:08:16.876Z,101213.75
2022-08-03T01:11:10.321Z,101213.97
2022-08-03T01:14:28.252Z,101208.84
2022-08-03T01:17:04.123Z,101212.13
2022-08-03T01:19:52.822Z,101213.03
2022-08-03T01:22:40.698Z,101208.72
2022-08-03T01:25:17.790Z,101205.69
2022-08-03T01:28:19.578Z,101200.56
2022-08-03T01:30:47.945Z,101205.69
2022-08-03T01:33:24.322Z,101204.66
2022-08-03T01:35:59.050Z,101205.66
2022-08-03T01:38:32.125Z,101202.66
2022-08-03T01:41:08.928Z,101201.00
2022-08-03T01:44:26.968Z,101194.66
2022-08-03T01:46:26.326Z,101200.19
2022-08-03T01:48:54.948Z,101200.13
2022-08-03T01:51:23.636Z,101194.81
2022-08-03T01:54:11.564Z,101195.06
2022-08-03T01:56:41.174Z,101198.41
2022-08-03T01:59:10.067Z,101184.91
2022-08-03T02:02:15.593Z,101193.59
2022-08-03T02:04:26.643Z,101191.13
2022-08-03T02:07:02.885Z,101195.94
2022-08-03T02:09:32.194Z,101199.41
2022-08-03T02:11:59.204Z,101192.75
2022-08-03T02:14:28.096Z,101192.06
2022-08-03T02:16:56.040Z,101198.44
2022-08-03T02:19:25.041Z,101202.13
2022-08-03T02:21:57.387Z,101200.75
2022-08-03T02:24:28.861Z,101196.19
2022-08-03T02:26:56.844Z,101199.16
2022-08-03T02:29:39.457Z,101195.00
2022-08-03T02:32:12.535Z,101193.69
2022-08-03T02:34:42.663Z,101191.72
2022-08-03T02:37:11.840Z,101190.81
2022-08-03T02:39:41.783Z,101187.44
2022-08-03T02:42:12.233Z,101193.81
2022-08-03T02:44:41.616Z,101192.56
2022-08-03T02:47:11.376Z,101189.22
2022-08-03T02:49:51.076Z,101188.38
2022-08-03T02:52:21.591Z,101192.56
2022-08-03T02:54:51.388Z,101190.88
2022-08-03T02:57:20.210Z,101194.78
2022-08-03T02:59:47.788Z,101197.56
2022-08-03T03:02:16.787Z,101191.72
2022-08-03T03:05:51.159Z,101198.41
2022-08-03T03:07:46.872Z,101190.47
2022-08-03T03:10:21.539Z,101190.81
2022-08-03T03:12:50.549Z,101191.47
2022-08-03T03:15:17.437Z,101184.22
2022-08-03T03:17:44.768Z,101180.44
2022-08-03T03:20:12.385Z,101181.28
2022-08-03T03:22:41.283Z,101186.19
2022-08-03T03:25:12.030Z,101190.88
2022-08-03T03:27:39.968Z,101184.00
2022-08-03T03:30:07.331Z,101188.44
2022-08-03T03:32:34.214Z,101186.94
2022-08-03T03:35:01.314Z,101178.59
2022-08-03T03:37:28.134Z,101193.22
2022-08-03T03:39:55.317Z,101189.63
2022-08-03T03:42:22.855Z,101193.06
2022-08-03T03:44:49.535Z,101197.72
2022-08-03T03:47:16.660Z,101196.50
2022-08-03T03:49:44.006Z,101196.50
2022-08-03T03:52:11.003Z,101191.56
2022-08-03T03:54:45.298Z,101197.50
2022-08-03T03:57:13.134Z,101202.41
2022-08-03T03:59:41.900Z,101192.34
2022-08-03T04:02:09.766Z,101199.16
2022-08-03T04:04:56.208Z,101196.47
2022-08-03T04:07:44.135Z,101195.34
2022-08-03T04:10:37.380Z,101199.78
2022-08-03T04:13:10.002Z,101197.66
2022-08-03T04:15:39.795Z,101195.84
2022-08-03T04:18:08.245Z,101203.44
2022-08-03T04:20:37.581Z,101204.28
2022-08-03T04:23:15.646Z,101210.66
2022-08-03T04:25:43.996Z,101208.09
2022-08-03T04:28:29.572Z,101206.66
2022-08-03T04:31:01.352Z,101211.19
2022-08-03T04:33:32.486Z,101213.25
2022-08-03T04:36:03.395Z,101215.78
2022-08-03T04:38:32.956Z,101223.72
2022-08-03T04:41:01.176Z,101223.56
2022-08-03T04:43:28.842Z,101214.78
2022-08-03T04:45:56.956Z,101221.66
2022-08-03T04:48:24.155Z,101227.66
2022-08-03T04:50:51.337Z,101223.25
2022-08-03T04:53:18.296Z,101238.38
2022-08-03T04:55:46.560Z,101229.81
2022-08-03T04:58:13.407Z,101239.19
2022-08-03T05:00:40.095Z,101235.09
2022-08-03T05:03:20.226Z,101244.91
2022-08-03T05:05:52.592Z,101242.72
2022-08-03T05:08:20.428Z,101254.81
2022-08-03T05:10:54.767Z,101250.72
2022-08-03T05:13:21.449Z,101243.91
2022-08-03T05:15:49.324Z,101241.50
2022-08-03T05:18:16.023Z,101244.84
2022-08-03T05:20:42.698Z,101253.28
2022-08-03T05:23:09.362Z,101255.75
2022-08-03T05:25:36.022Z,101255.06
2022-08-03T05:28:03.551Z,101263.69
2022-08-03T05:30:33.638Z,101258.13
2022-08-03T05:33:01.601Z,101266.38
2022-08-03T05:36:01.622Z,101264.28
2022-08-03T05:38:24.292Z,101261.94
2022-08-03T05:40:57.520Z,101267.91
2022-08-03T05:43:43.516Z,101264.59
2022-08-03T05:46:13.078Z,101271.34
2022-08-03T05:48:41.142Z,101265.47
2022-08-03T05:51:11.539Z,101259.44
2022-08-03T05:53:40.057Z,101261.19
2022-08-03T05:56:13.997Z,101265.81
2022-08-03T05:58:47.641Z,101260.81
2022-08-03T06:01:16.307Z,101257.03
2022-08-03T06:03:43.272Z,101260.94
2022-08-03T06:06:10.065Z,101262.03
2022-08-03T06:08:37.154Z,101265.34
2022-08-03T06:11:05.654Z,101262.63
2022-08-03T06:13:32.505Z,101256.94
2022-08-03T06:15:59.401Z,101261.56
2022-08-03T06:18:26.230Z,101270.50
2022-08-03T06:20:53.170Z,101272.03
2022-08-03T06:23:20.206Z,101281.81
2022-08-03T06:25:47.579Z,101269.41
2022-08-03T06:28:35.681Z,101275.91
2022-08-03T06:31:01.981Z,101280.97
2022-08-03T06:34:30.757Z,101278.50
2022-08-03T06:36:15.818Z,101287.53
2022-08-03T06:38:42.447Z,101290.56
2022-08-03T06:41:09.245Z,101290.91
2022-08-03T06:43:38.137Z,101287.84
2022-08-03T06:46:24.489Z,101295.00
2022-08-03T06:48:51.217Z,101290.69
2022-08-03T06:51:18.997Z,101292.34
2022-08-03T06:53:45.598Z,101296.53
2022-08-03T06:56:12.248Z,101294.59
2022-08-03T06:58:38.924Z,101296.94
2022-08-03T07:01:05.669Z,101296.09
2022-08-03T07:03:32.605Z,101295.69
2022-08-03T07:05:59.875Z,101293.72
2022-08-03T07:08:33.576Z,101307.53
2022-08-03T07:11:00.718Z,101304.75
2022-08-03T07:13:27.318Z,101309.22
2022-08-03T07:15:56.549Z,101311.59
2022-08-03T07:18:24.473Z,101314.44
2022-08-03T07:20:58.212Z,101311.91
2022-08-03T07:23:25.728Z,101313.44
2022-08-03T07:25:52.744Z,101315.31
2022-08-03T07:28:20.115Z,101313.09
2022-08-03T07:30:47.464Z,101304.00
2022-08-03T07:33:15.360Z,101312.72
2022-08-03T07:35:42.293Z,101314.28
2022-08-03T07:38:08.921Z,101307.16
2022-08-03T07:40:35.830Z,101308.94
2022-08-03T07:43:03.521Z,101308.28
2022-08-03T07:45:31.518Z,101310.50
2022-08-03T07:47:58.190Z,101307.81
2022-08-03T07:50:25.484Z,101314.84
2022-08-03T07:52:53.642Z,101320.00
2022-08-03T07:55:22.599Z,101317.03
2022-08-03T07:58:06.621Z,101314.91
2022-08-03T08:00:34.053Z,101315.50
2022-08-03T08:03:00.921Z,101318.09
2022-08-03T08:05:28.230Z,101320.13
2022-08-03T08:07:55.546Z,101312.13
2022-08-03T08:10:22.407Z,101311.91
2022-08-03T08:12:49.393Z,101314.34
2022-08-03T08:15:16.336Z,101309.69
2022-08-03T08:17:50.876Z,101310.22
2022-08-03T08:20:22.460Z,101311.97
2022-08-03T08:22:57.159Z,101308.56
2022-08-03T08:25:25.361Z,101305.41
2022-08-03T08:28:31.517Z,101307.00
2022-08-03T08:30:38.881Z,101308.53
2022-08-03T08:33:05.628Z,101309.41
2022-08-03T08:35:32.370Z,101308.00
2022-08-03T08:38:05.562Z,101307.28
2022-08-03T08:40:32.810Z,101309.41
2022-08-03T08:42:59.528Z,101300.84
2022-08-03T08:45:26.761Z,101312.03
2022-08-03T08:48:00.347Z,101303.63
2022-08-03T08:50:28.754Z,101304.00
2022-08-03T08:52:59.927Z,101302.72
2022-08-03T08:55:26.942Z,101302.66
2022-08-03T08:58:01.965Z,101299.59
2022-08-03T09:00:30.886Z,101303.72
2022-08-03T09:02:57.696Z,101304.97
2022-08-03T09:05:36.273Z,101294.31
2022-08-03T09:08:11.415Z,101294.34
2022-08-03T09:10:38.163Z,101298.31
2022-08-03T09:13:04.831Z,101295.47
2022-08-03T09:15:33.363Z,101286.63
2022-08-03T09:18:02.581Z,101290.47
2022-08-03T09:20:34.502Z,101294.09
2022-08-03T09:23:19.067Z,101295.19
2022-08-03T09:26:00.061Z,101287.19
2022-08-03T09:29:00.493Z,101284.56
2022-08-03T09:31:32.140Z,101276.69
2022-08-03T09:34:02.198Z,101286.34
2022-08-03T09:36:40.807Z,101283.69
2022-08-03T09:39:40.961Z,101287.00
2022-08-03T09:42:23.773Z,101278.34
2022-08-03T09:44:52.062Z,101282.84
2022-08-03T09:47:29.571Z,101285.66
2022-08-03T09:50:04.538Z,101290.25
2022-08-03T09:52:39.100Z,101284.16
2022-08-03T09:56:30.773Z,101269.69
2022-08-03T09:58:06.997Z,101275.13
2022-08-03T10:00:54.415Z,101269.41
2022-08-03T10:03:21.312Z,101271.00
2022-08-03T10:05:48.179Z,101271.06
2022-08-03T10:08:16.308Z,101270.88
2022-08-03T10:10:44.244Z,101271.19
2022-08-03T10:13:16.422Z,101265.47
2022-08-03T10:16:23.117Z,101252.28
2022-08-03T10:18:29.977Z,101267.28
2022-08-03T10:21:05.059Z,101253.66
2022-08-03T10:23:35.739Z,101252.44
2022-08-03T10:26:05.937Z,101254.53
2022-08-03T10:28:44.719Z,101258.31
2022-08-03T10:31:13.904Z,101244.66
2022-08-03T10:33:50.955Z,101239.25
2022-08-03T10:36:23.906Z,101239.16
2022-08-03T10:38:55.274Z,101243.03
2022-08-03T10:41:26.990Z,101239.84
2022-08-03T10:43:58.768Z,101238.97
2022-08-03T10:46:27.257Z,101230.16
2022-08-03T10:48:56.516Z,101235.56
2022-08-03T10:51:24.113Z,101219.22
2022-08-03T10:53:54.964Z,101211.97
2022-08-03T10:56:54.388Z,101220.38
2022-08-03T10:59:46.135Z,101221.06
2022-08-03T11:02:16.319Z,101216.94
2022-08-03T11:04:45.264Z,101225.22
2022-08-03T11:07:23.676Z,101220.44
2022-08-03T11:09:55.369Z,101219.63
2022-08-03T11:12:21.887Z,101212.28
2022-08-03T11:15:21.506Z,101202.69
2022-08-03T11:18:11.103Z,101209.25
2022-08-03T11:20:52.167Z,101199.72
2022-08-03T11:24:04.540Z,101204.47
2022-08-03T11:26:33.804Z,101197.75
2022-08-03T11:29:31.730Z,101192.69
2022-08-03T11:31:58.725Z,101193.63
2022-08-03T11:34:26.120Z,101182.41
2022-08-03T11:37:28.534Z,101187.69
2022-08-03T11:39:58.045Z,101187.44
2022-08-03T11:42:24.943Z,101198.81
2022-08-03T11:44:56.498Z,101186.19
2022-08-03T11:47:26.949Z,101187.75
2022-08-03T11:49:59.171Z,101180.19
2022-08-03T11:52:28.729Z,101182.03
2022-08-03T11:54:57.132Z,101185.06
2022-08-03T11:59:01.235Z,101174.88
2022-08-03T12:00:23.700Z,101160.44
2022-08-03T12:03:10.797Z,101169.09
2022-08-03T12:05:51.856Z,101160.88
2022-08-03T12:08:27.908Z,101156.78
2022-08-03T12:10:57.640Z,101160.91
2022-08-03T12:14:44.927Z,101156.97
2022-08-03T12:16:24.798Z,101155.06
2022-08-03T12:19:06.676Z,101145.75
2022-08-03T12:21:33.622Z,101148.47
2022-08-03T12:24:05.135Z,101134.16
2022-08-03T12:26:58.338Z,101141.38
2022-08-03T12:29:25.921Z,101146.59
2022-08-03T12:31:53.498Z,101135.69
2022-08-03T12:34:20.212Z,101146.94
2022-08-03T12:36:54.191Z,101146.59
2022-08-03T12:39:24.977Z,101139.78
2022-08-03T12:41:55.632Z,101136.28
2022-08-03T12:44:33.486Z,101131.56
2022-08-03T12:47:01.424Z,101131.31
2022-08-03T12:49:30.490Z,101136.91
2022-08-03T12:52:04.091Z,101132.97
2022-08-03T12:54:35.996Z,101131.63
2022-08-03T12:57:08.770Z,101122.78
2022-08-03T12:59:49.861Z,101127.75
2022-08-03T13:02:25.726Z,101118.94
2022-08-03T13:04:54.753Z,101111.66
2022-08-03T13:07:22.445Z,101122.22
2022-08-03T13:09:50.180Z,101124.34
2022-08-03T13:12:22.458Z,101118.69
2022-08-03T13:14:57.348Z,101117.00
2022-08-03T13:17:24.833Z,101113.66
2022-08-03T13:19:52.008Z,101110.91
2022-08-03T13:22:21.399Z,101111.41
2022-08-03T13:24:51.396Z,101107.97
2022-08-03T13:28:01.558Z,101101.03
2022-08-03T13:30:06.198Z,101092.69
2022-08-03T13:32:33.652Z,101106.00
2022-08-03T13:35:00.361Z,101097.78
2022-08-03T13:37:27.364Z,101095.22
2022-08-03T13:39:58.697Z,101093.31
2022-08-03T13:42:30.294Z,101078.44
2022-08-03T13:44:57.057Z,101082.91
2022-08-03T13:47:23.785Z,101091.09
2022-08-03T13:49:59.631Z,101083.59
2022-08-03T13:52:32.674Z,101076.56
2022-08-03T13:55:00.067Z,101069.53
2022-08-03T13:58:04.544Z,101075.31
2022-08-03T14:00:28.052Z,101074.53
2022-08-03T14:03:05.036Z,101073.53
2022-08-03T14:05:32.526Z,101064.19
2022-08-03T14:08:04.725Z,101059.88
2022-08-03T14:10:39.603Z,101067.41
2022-08-03T14:13:07.017Z,101061.53
2022-08-03T14:15:38.035Z,101058.06
2022-08-03T14:18:06.094Z,101061.72
2022-08-03T14:20:38.798Z,101054.22
2022-08-03T14:23:16.164Z,101053.09
2022-08-03T14:25:50.151Z,101056.13
2022-08-03T14:28:18.417Z,101058.53
2022-08-03T14:30:45.493Z,101050.53
2022-08-03T14:33:12.157Z,101041.84
2022-08-03T14:35:38.782Z,101038.75
2022-08-03T14:38:05.448Z,101036.25
2022-08-03T14:40:32.329Z,101036.66
2022-08-03T14:42:59.272Z,101032.00
2022-08-03T14:45:26.051Z,101038.56
2022-08-03T14:50:34.226Z,101033.50
2022-08-03T14:50:45.491Z,101042.03
2022-08-03T14:53:17.185Z,101032.41
2022-08-03T14:55:49.863Z,101021.84
2022-08-03T14:58:19.584Z,101029.34
2022-08-03T15:00:48.096Z,101025.75
2022-08-03T15:03:16.789Z,101021.03
2022-08-03T15:05:43.865Z,101017.22
2022-08-03T15:08:10.559Z,101015.84
2022-08-03T15:10:44.400Z,101011.06
2022-08-03T15:13:15.341Z,101014.84
2022-08-03T15:15:42.314Z,101014.88
2022-08-03T15:18:09.285Z,101007.41
2022-08-03T15:20:44.314Z,101008.22
2022-08-03T15:23:11.907Z,101003.47
2022-08-03T15:26:28.424Z,101004.53
2022-08-03T15:28:25.393Z,101009.88
2022-08-03T15:30:53.027Z,101016.38
2022-08-03T15:33:20.418Z,101010.31
2022-08-03T15:35:47.870Z,101005.66
2022-08-03T15:38:15.983Z,100998.47
2022-08-03T15:40:42.781Z,100996.19
2022-08-03T15:43:09.429Z,100987.97
2022-08-03T15:45:36.965Z,101001.38
2022-08-03T15:48:05.815Z,100992.28
2022-08-03T15:50:32.929Z,100992.72
2022-08-03T15:52:59.756Z,100984.75
2022-08-03T15:55:26.728Z,100979.91
2022-08-03T15:59:09.239Z,100980.91
2022-08-03T16:00:41.657Z,100985.66
2022-08-03T16:03:08.461Z,100984.03
2022-08-03T16:05:36.146Z,100978.75
2022-08-03T16:08:05.120Z,100979.34
2022-08-03T16:10:33.713Z,100973.22
2022-08-03T16:13:00.593Z,100975.78
2022-08-03T16:15:27.700Z,100975.88
2022-08-03T16:17:54.404Z,100969.81
2022-08-03T16:20:30.827Z,100968.94
2022-08-03T16:23:10.796Z,100970.28
2022-08-03T16:25:42.519Z,100971.13
2022-08-03T16:28:14.009Z,100976.22
2022-08-03T16:30:42.895Z,100972.31
2022-08-03T16:33:10.310Z,100977.41
2022-08-03T16:35:37.527Z,100970.44
2022-08-03T16:38:09.561Z,100981.13
2022-08-03T16:40:36.912Z,100982.31
2022-08-03T16:43:18.502Z,100984.03
2022-08-03T16:45:47.320Z,100980.06
2022-08-03T16:48:18.274Z,100976.81
2022-08-03T16:50:45.443Z,100990.66
2022-08-03T16:53:16.824Z,100983.91
2022-08-03T16:55:52.372Z,100977.41
2022-08-03T16:58:41.511Z,100984.00
2022-08-03T17:03:42.700Z,100985.53
2022-08-03T17:06:33.817Z,100982.31
2022-08-03T17:09:01.969Z,100979.34
2022-08-03T17:11:32.058Z,100988.19
2022-08-03T17:14:00.508Z,100976.63
2022-08-03T17:16:28.379Z,100978.88
2022-08-03T17:19:03.985Z,100992.91
2022-08-03T17:21:33.069Z,100990.19
2022-08-03T17:24:19.826Z,100985.16
2022-08-03T17:26:50.044Z,100991.69
2022-08-03T17:29:22.976Z,100984.69
2022-08-03T17:31:54.213Z,100989.78
2022-08-03T17:34:26.570Z,100998.97
2022-08-03T17:37:26.963Z,100999.94
2022-08-03T17:39:59.845Z,100997.94
2022-08-03T17:42:38.865Z,101001.75
2022-08-03T17:45:07.099Z,100997.44
2022-08-03T17:47:42.671Z,101006.97
2022-08-03T17:50:25.123Z,101007.81
2022-08-03T17:53:07.606Z,101005.84
2022-08-03T17:55:57.043Z,101010.66
2022-08-03T17:58:55.431Z,101006.78
2022-08-03T18:02:16.641Z,101008.56
2022-08-03T18:05:00.678Z,101006.59
2022-08-03T18:07:40.946Z,101005.63
2022-08-03T18:10:11.489Z,101001.19
2022-08-03T18:12:59.825Z,101000.44
2022-08-03T18:15:37.573Z,101001.50
2022-08-03T18:18:11.222Z,101009.44
2022-08-03T18:20:41.993Z,101000.56
2022-08-03T18:23:11.683Z,101002.56
2022-08-03T18:25:57.917Z,101000.88
2022-08-03T18:28:27.328Z,101005.44
2022-08-03T18:30:56.228Z,101007.63
2022-08-03T18:34:16.919Z,101003.84
2022-08-03T18:36:17.454Z,101006.47
2022-08-03T18:38:49.319Z,101012.00
2022-08-03T18:41:21.954Z,101014.09
2022-08-03T18:44:08.264Z,101002.41
2022-08-03T18:46:41.316Z,101007.91
2022-08-03T18:49:15.994Z,100997.50
2022-08-03T18:51:47.075Z,100994.41
2022-08-03T18:54:45.460Z,101012.78
2022-08-03T18:57:07.349Z,101016.47
2022-08-03T18:59:46.242Z,101018.03
2022-08-03T19:02:40.971Z,101023.38
2022-08-03T19:05:19.172Z,101032.63
2022-08-03T19:10:57.947Z,101026.59
2022-08-03T19:13:38.447Z,101033.00
2022-08-03T19:16:13.951Z,101030.06
2022-08-03T19:18:50.089Z,101034.00
2022-08-03T19:21:16.859Z,101032.38
2022-08-03T19:23:47.588Z,101036.50
2022-08-03T19:29:06.857Z,101047.88
2022-08-03T19:31:59.696Z,101051.84
2022-08-03T19:34:29.783Z,101052.59
2022-08-03T19:36:59.792Z,101043.56
2022-08-03T19:39:27.789Z,101054.63
2022-08-03T19:41:58.356Z,101055.00
2022-08-03T19:44:37.885Z,101056.31
2022-08-03T19:47:10.099Z,101061.44
2022-08-03T19:49:57.793Z,101056.81
2022-08-03T19:52:31.528Z,101060.75
2022-08-03T19:55:02.116Z,101062.78
2022-08-03T19:57:32.626Z,101065.63
2022-08-03T20:00:03.528Z,101065.50
2022-08-03T20:02:32.219Z,101077.09
2022-08-03T20:04:59.776Z,101068.97
2022-08-03T20:07:28.477Z,101076.16
2022-08-03T20:09:56.616Z,101066.34
2022-08-03T20:12:29.203Z,101070.91
2022-08-03T20:14:57.806Z,101069.75
2022-08-03T20:17:54.778Z,101069.81
2022-08-03T20:20:12.776Z,101060.28
2022-08-03T20:22:45.482Z,101066.63
2022-08-03T20:25:16.262Z,101070.28
2022-08-03T20:28:05.823Z,101074.78
2022-08-03T20:30:35.609Z,101070.13
2022-08-03T20:33:02.425Z,101076.34
2022-08-03T20:35:30.340Z,101064.34
2022-08-03T20:37:57.967Z,101061.72
2022-08-03T20:40:27.479Z,101071.97
2022-08-03T20:42:55.505Z,101061.84
2022-08-03T20:46:01.103Z,101061.53
2022-08-03T20:48:10.057Z,101060.28
2022-08-03T20:50:38.515Z,101057.84
2022-08-03T20:53:06.760Z,101063.03
2022-08-03T20:55:47.584Z,101061.84
2022-08-03T20:58:20.768Z,101065.75
2022-08-03T21:00:51.478Z,101059.56
2022-08-03T21:03:19.036Z,101065.22
2022-08-03T21:05:51.807Z,101071.59
2022-08-03T21:08:25.972Z,101067.94
2022-08-03T21:10:53.736Z,101063.84
2022-08-03T21:13:01.365Z,101029.34
2022-08-03T21:13:02.203Z,101044.63
2022-08-03T21:13:37.724Z,101064.56
2022-08-03T21:16:14.250Z,101070.13
2022-08-03T21:18:47.545Z,101074.16
2022-08-03T21:21:16.429Z,101074.00
2022-08-03T21:23:49.099Z,101073.50
2022-08-03T21:26:18.248Z,101075.78
2022-08-03T21:28:46.952Z,101080.69
2022-08-03T21:31:19.777Z,101081.31
2022-08-03T21:34:11.760Z,101083.00
2022-08-03T21:36:38.731Z,101079.13
2022-08-03T21:39:08.336Z,101084.84
2022-08-03T21:41:36.460Z,101085.38
2022-08-03T21:44:04.849Z,101088.66
2022-08-03T21:46:41.048Z,101096.50
2022-08-03T21:50:04.617Z,101091.84
2022-08-03T21:51:59.604Z,101094.22
2022-08-03T21:54:35.098Z,101098.53
2022-08-03T21:57:05.914Z,101085.63
2022-08-03T21:59:37.373Z,101095.94
2022-08-03T22:02:04.624Z,101099.50
2022-08-03T22:04:50.922Z,101104.00
2022-08-03T22:07:23.048Z,101103.06
2022-08-03T22:09:52.050Z,101107.44
2022-08-03T22:12:23.912Z,101109.19
2022-08-03T22:15:00.507Z,101116.59
2022-08-03T22:17:54.573Z,101114.38
2022-08-03T22:20:15.946Z,101110.44
2022-08-03T22:22:53.540Z,101116.66
2022-08-03T22:25:28.898Z,101116.00
2022-08-03T22:27:56.597Z,101123.41
2022-08-03T22:30:23.486Z,101117.03
2022-08-03T22:32:53.411Z,101118.72
2022-08-03T22:35:21.500Z,101119.00
2022-08-03T22:37:53.975Z,101123.88
2022-08-03T22:40:21.014Z,101117.59
2022-08-03T22:42:50.507Z,101115.44
2022-08-03T22:46:10.477Z,101126.97
2022-08-03T22:48:08.271Z,101136.34
2022-08-03T22:50:35.699Z,101134.00
2022-08-03T22:53:02.834Z,101133.25
2022-08-03T22:55:29.914Z,101127.41
2022-08-03T22:57:56.675Z,101131.56
2022-08-03T23:00:23.938Z,101130.00
2022-08-03T23:02:52.029Z,101137.53
2022-08-03T23:06:01.087Z,101137.97
2022-08-03T23:08:15.250Z,101139.53
2022-08-03T23:10:47.021Z,101138.97
2022-08-03T23:13:16.607Z,101142.94
2022-08-03T23:15:52.566Z,101144.09
2022-08-03T23:18:21.545Z,101151.81
2022-08-03T23:20:58.141Z,101155.50
2022-08-03T23:23:24.885Z,101150.66
2022-08-03T23:25:51.918Z,101150.50
2022-08-03T23:28:18.956Z,101153.22
2022-08-03T23:30:45.859Z,101150.34
2022-08-03T23:33:15.253Z,101152.91
2022-08-03T23:36:22.648Z,101159.16
2022-08-03T23:38:45.013Z,101162.78
2022-08-03T23:41:12.825Z,101162.22
2022-08-03T23:43:44.952Z,101163.88
2022-08-03T23:46:21.488Z,101153.31
2022-08-03T23:48:48.205Z,101152.84
2022-08-03T23:51:42.209Z,101156.97
2022-08-03T23:54:30.235Z,101151.56
2022-08-03T23:57:15.578Z,101155.38
